createdAt,value
2023-10-25T00:00:32.374Z,100618.41
2023-10-25T00:02:59.467Z,100610.47
2023-10-25T00:05:32.022Z,100612.78
2023-10-25T00:07:58.809Z,100598.06
2023-10-25T00:10:25.826Z,100593.00
2023-10-25T00:12:52.666Z,100592.31
2023-10-25T00:15:19.647Z,100589.53
2023-10-25T00:17:46.558Z,100584.66
2023-10-25T00:20:13.548Z,100584.56
2023-10-25T00:22:40.350Z,100587.25
2023-10-25T00:25:07.551Z,100586.16
2023-10-25T00:27:34.470Z,100584.31
2023-10-25T00:30:01.296Z,100591.78
2023-10-25T00:32:28.082Z,100589.16
2023-10-25T00:34:54.915Z,100592.47
2023-10-25T00:37:21.752Z,100576.25
2023-10-25T00:39:49.315Z,100582.66
2023-10-25T00:42:16.267Z,100589.16
2023-10-25T00:44:43.161Z,100590.47
2023-10-25T00:47:10.007Z,100579.84
2023-10-25T00:49:38.084Z,100567.56
2023-10-25T00:52:05.882Z,100558.66
2023-10-25T00:54:32.944Z,100548.25
2023-10-25T00:57:00.348Z,100540.44
2023-10-25T00:59:28.575Z,100547.00
2023-10-25T01:01:55.800Z,100555.81
2023-10-25T01:04:22.750Z,100568.81
2023-10-25T01:06:49.710Z,100560.00
2023-10-25T01:09:16.613Z,100558.66
2023-10-25T01:11:43.595Z,100566.56
2023-10-25T01:14:11.380Z,100566.47
2023-10-25T01:16:38.261Z,100564.03
2023-10-25T01:19:05.143Z,100553.72
2023-10-25T01:21:32.394Z,100558.66
2023-10-25T01:23:59.419Z,100558.31
2023-10-25T01:26:26.288Z,100562.00
2023-10-25T01:28:53.106Z,100545.16
2023-10-25T01:31:20.962Z,100537.38
2023-10-25T01:33:52.349Z,100529.91
2023-10-25T01:36:20.154Z,100523.03
2023-10-25T01:38:47.023Z,100516.53
2023-10-25T01:41:19.689Z,100520.03
2023-10-25T01:43:47.725Z,100513.56
2023-10-25T01:46:15.062Z,100512.13
2023-10-25T01:48:42.090Z,100510.53
2023-10-25T01:51:09.886Z,100506.66
2023-10-25T01:53:37.211Z,100523.00
2023-10-25T01:56:04.221Z,100521.13
2023-10-25T01:58:31.607Z,100512.91
2023-10-25T02:00:58.666Z,100522.06
2023-10-25T02:03:25.662Z,100510.34
2023-10-25T02:05:52.552Z,100514.00
2023-10-25T02:08:19.393Z,100511.97
2023-10-25T02:10:46.289Z,100513.16
2023-10-25T02:13:13.196Z,100497.41
2023-10-25T02:15:41.162Z,100506.16
2023-10-25T02:18:08.607Z,100501.38
2023-10-25T02:20:35.480Z,100497.03
2023-10-25T02:23:02.678Z,100499.72
2023-10-25T02:25:29.588Z,100499.13
2023-10-25T02:27:58.084Z,100500.50
2023-10-25T02:30:25.293Z,100497.25
2023-10-25T02:32:52.210Z,100504.13
2023-10-25T02:35:19.436Z,100493.03
2023-10-25T02:37:46.396Z,100494.88
2023-10-25T02:40:13.230Z,100494.88
2023-10-25T02:42:43.597Z,100493.03
2023-10-25T02:45:10.646Z,100497.00
2023-10-25T02:47:37.722Z,100487.44
2023-10-25T02:50:06.209Z,100489.44
2023-10-25T02:52:33.015Z,100487.94
2023-10-25T02:54:59.865Z,100483.81
2023-10-25T02:57:26.777Z,100491.75
2023-10-25T02:59:54.945Z,100491.88
2023-10-25T03:02:21.854Z,100495.13
2023-10-25T03:04:49.021Z,100499.91
2023-10-25T03:07:15.849Z,100484.97
2023-10-25T03:09:42.848Z,100478.66
2023-10-25T03:12:10.096Z,100460.75
2023-10-25T03:14:36.843Z,100457.75
2023-10-25T03:17:03.854Z,100459.63
2023-10-25T03:19:31.157Z,100458.28
2023-10-25T03:21:58.363Z,100450.59
2023-10-25T03:24:25.447Z,100457.59
2023-10-25T03:26:52.334Z,100449.41
2023-10-25T03:29:19.236Z,100444.25
2023-10-25T03:31:46.168Z,100458.44
2023-10-25T03:34:13.314Z,100446.03
2023-10-25T03:36:40.179Z,100446.59
2023-10-25T03:39:07.232Z,100446.50
2023-10-25T03:41:34.213Z,100448.34
2023-10-25T03:44:01.125Z,100446.13
2023-10-25T03:46:28.051Z,100457.19
2023-10-25T03:48:54.970Z,100440.03
2023-10-25T03:51:23.172Z,100442.94
2023-10-25T03:53:50.636Z,100452.53
2023-10-25T03:56:17.473Z,100463.50
2023-10-25T03:58:44.367Z,100456.50
2023-10-25T04:01:12.452Z,100452.41
2023-10-25T04:03:39.663Z,100450.69
2023-10-25T04:06:08.425Z,100453.88
2023-10-25T04:08:35.442Z,100466.84
2023-10-25T04:11:02.711Z,100469.41
2023-10-25T04:13:29.596Z,100469.59
2023-10-25T04:16:01.546Z,100471.56
2023-10-25T04:18:29.066Z,100458.53
2023-10-25T04:20:57.320Z,100465.00
2023-10-25T04:23:25.786Z,100459.06
2023-10-25T04:25:53.300Z,100457.78
2023-10-25T04:28:20.453Z,100452.19
2023-10-25T04:30:47.631Z,100449.63
2023-10-25T04:33:15.334Z,100450.91
2023-10-25T04:35:42.806Z,100447.16
2023-10-25T04:38:10.330Z,100451.88
2023-10-25T04:40:37.120Z,100451.66
2023-10-25T04:43:04.081Z,100452.38
2023-10-25T04:45:30.991Z,100450.25
2023-10-25T04:47:57.951Z,100454.81
2023-10-25T04:50:24.874Z,100452.38
2023-10-25T04:52:51.763Z,100450.06
2023-10-25T04:55:18.793Z,100450.50
2023-10-25T04:57:45.716Z,100460.56
2023-10-25T05:00:13.313Z,100466.75
2023-10-25T05:02:40.399Z,100459.06
2023-10-25T05:05:09.085Z,100460.09
2023-10-25T05:07:38.541Z,100453.00
2023-10-25T05:10:10.441Z,100448.09
2023-10-25T05:12:44.540Z,100438.75
2023-10-25T05:15:13.537Z,100430.53
2023-10-25T05:17:41.272Z,100446.91
2023-10-25T05:20:08.940Z,100444.56
2023-10-25T05:22:37.902Z,100460.69
2023-10-25T05:25:06.785Z,100452.41
2023-10-25T05:27:35.140Z,100463.28
2023-10-25T05:30:06.550Z,100464.34
2023-10-25T05:32:35.541Z,100468.66
2023-10-25T05:35:04.982Z,100456.28
2023-10-25T05:37:32.523Z,100463.50
2023-10-25T05:39:59.678Z,100459.88
2023-10-25T05:42:27.030Z,100450.53
2023-10-25T05:44:57.577Z,100444.69
2023-10-25T05:47:25.239Z,100443.56
2023-10-25T05:49:52.875Z,100441.91
2023-10-25T05:52:21.242Z,100449.50
2023-10-25T05:54:48.678Z,100452.19
2023-10-25T05:57:15.898Z,100439.22
2023-10-25T05:59:43.003Z,100445.78
2023-10-25T06:02:12.504Z,100454.66
2023-10-25T06:04:41.069Z,100459.94
2023-10-25T06:07:10.968Z,100461.22
2023-10-25T06:09:39.058Z,100461.34
2023-10-25T06:12:07.064Z,100470.22
2023-10-25T06:14:34.067Z,100468.84
2023-10-25T06:17:02.353Z,100468.53
2023-10-25T06:19:29.386Z,100474.56
2023-10-25T06:21:56.553Z,100472.84
2023-10-25T06:24:23.553Z,100461.41
2023-10-25T06:26:50.673Z,100462.16
2023-10-25T06:29:17.642Z,100451.56
2023-10-25T06:31:51.360Z,100454.69
2023-10-25T06:34:20.134Z,100445.44
2023-10-25T06:36:48.061Z,100457.16
2023-10-25T06:39:15.260Z,100450.34
2023-10-25T06:41:43.238Z,100442.28
2023-10-25T06:44:10.789Z,100429.25
2023-10-25T06:46:38.110Z,100439.84
2023-10-25T06:49:05.472Z,100446.03
2023-10-25T06:51:32.610Z,100452.25
2023-10-25T06:53:59.757Z,100462.47
2023-10-25T06:56:26.916Z,100474.53
2023-10-25T06:58:54.565Z,100486.31
2023-10-25T07:01:24.749Z,100483.63
2023-10-25T07:03:52.552Z,100491.59
2023-10-25T07:06:20.094Z,100490.69
2023-10-25T07:08:49.794Z,100495.94
2023-10-25T07:11:16.914Z,100506.59
2023-10-25T07:13:43.811Z,100525.06
2023-10-25T07:16:10.823Z,100516.88
2023-10-25T07:18:40.083Z,100518.91
2023-10-25T07:21:07.573Z,100535.88
2023-10-25T07:23:34.504Z,100528.81
2023-10-25T07:26:01.348Z,100537.25
2023-10-25T07:28:28.220Z,100539.94
2023-10-25T07:30:55.137Z,100538.38
2023-10-25T07:33:25.995Z,100536.69
2023-10-25T07:35:52.802Z,100538.22
2023-10-25T07:38:19.601Z,100553.09
2023-10-25T07:40:46.691Z,100558.81
2023-10-25T07:43:13.515Z,100553.50
2023-10-25T07:45:40.301Z,100555.72
2023-10-25T07:48:07.225Z,100551.91
2023-10-25T07:50:35.877Z,100542.38
2023-10-25T07:53:02.788Z,100545.13
2023-10-25T08:00:29.041Z,100519.56
2023-10-25T08:02:56.001Z,100530.94
2023-10-25T08:05:23.000Z,100531.03
2023-10-25T08:07:49.922Z,100524.19
2023-10-25T08:10:16.810Z,100516.06
2023-10-25T08:12:43.696Z,100508.47
2023-10-25T08:15:10.677Z,100501.66
2023-10-25T08:17:37.613Z,100505.75
2023-10-25T08:20:06.767Z,100502.72
2023-10-25T08:22:35.140Z,100502.03
2023-10-25T08:25:02.337Z,100501.34
2023-10-25T08:27:29.238Z,100500.72
2023-10-25T08:29:57.494Z,100521.94
2023-10-25T08:32:24.729Z,100519.75
2023-10-25T08:34:51.739Z,100530.47
2023-10-25T08:37:19.444Z,100534.06
2023-10-25T08:39:46.286Z,100542.22
2023-10-25T08:42:13.421Z,100524.81
2023-10-25T08:44:43.056Z,100526.28
2023-10-25T08:47:11.668Z,100530.22
2023-10-25T08:49:39.390Z,100534.41
2023-10-25T08:52:07.699Z,100534.50
2023-10-25T08:54:37.774Z,100535.69
2023-10-25T08:57:06.168Z,100538.28
2023-10-25T08:59:42.936Z,100528.38
2023-10-25T09:02:12.902Z,100525.47
2023-10-25T09:04:58.961Z,100531.47
2023-10-25T09:07:30.541Z,100533.97
2023-10-25T09:09:58.023Z,100538.69
2023-10-25T09:12:25.825Z,100537.72
2023-10-25T09:14:53.398Z,100545.00
2023-10-25T09:17:20.467Z,100554.53
2023-10-25T09:19:49.722Z,100544.09
2023-10-25T09:22:27.068Z,100557.97
2023-10-25T09:25:01.662Z,100565.00
2023-10-25T09:27:29.586Z,100559.59
2023-10-25T09:30:26.506Z,100565.34
2023-10-25T09:32:54.557Z,100568.66
2023-10-25T09:35:21.906Z,100562.25
2023-10-25T09:37:48.925Z,100558.66
2023-10-25T09:40:16.050Z,100567.38
2023-10-25T09:42:53.377Z,100569.34
2023-10-25T09:45:26.810Z,100565.38
2023-10-25T09:47:58.769Z,100569.19
2023-10-25T09:50:38.666Z,100560.28
2023-10-25T09:53:15.133Z,100561.94
2023-10-25T09:55:47.008Z,100560.69
2023-10-25T09:58:15.989Z,100544.69
2023-10-25T10:00:43.230Z,100565.00
2023-10-25T10:03:33.542Z,100545.19
2023-10-25T10:06:07.148Z,100550.41
2023-10-25T10:09:14.179Z,100539.81
2023-10-25T10:11:48.535Z,100555.41
2023-10-25T10:14:38.046Z,100547.06
2023-10-25T10:17:15.037Z,100552.47
2023-10-25T10:19:44.516Z,100554.94
2023-10-25T10:22:14.989Z,100557.41
2023-10-25T10:24:43.134Z,100559.13
2023-10-25T10:27:55.474Z,100547.75
2023-10-25T10:30:31.472Z,100537.16
2023-10-25T10:32:58.814Z,100541.53
2023-10-25T10:35:26.603Z,100529.59
2023-10-25T10:37:57.184Z,100526.38
2023-10-25T10:40:24.427Z,100523.97
2023-10-25T10:42:51.487Z,100531.56
2023-10-25T10:45:20.844Z,100529.13
2023-10-25T10:47:59.505Z,100532.13
2023-10-25T10:50:27.115Z,100537.00
2023-10-25T10:52:54.322Z,100532.69
2023-10-25T10:55:23.611Z,100532.13
2023-10-25T11:00:20.863Z,100532.41
2023-10-25T11:02:49.389Z,100521.53
2023-10-25T11:05:16.819Z,100535.69
2023-10-25T11:07:43.787Z,100517.75
2023-10-25T11:10:11.366Z,100522.09
2023-10-25T11:12:38.564Z,100521.81
2023-10-25T11:15:06.740Z,100521.56
2023-10-25T11:17:34.893Z,100527.53
2023-10-25T11:20:05.884Z,100531.59
2023-10-25T11:22:33.736Z,100533.22
2023-10-25T11:25:01.143Z,100528.34
2023-10-25T11:27:32.131Z,100527.50
2023-10-25T11:30:01.245Z,100522.34
2023-10-25T11:32:31.407Z,100521.00
2023-10-25T11:34:58.433Z,100521.53
2023-10-25T11:37:26.711Z,100518.84
2023-10-25T11:40:01.036Z,100518.84
2023-10-25T11:42:30.946Z,100519.63
2023-10-25T11:45:00.517Z,100522.38
2023-10-25T11:47:28.996Z,100518.81
2023-10-25T11:50:00.579Z,100511.19
2023-10-25T11:52:28.934Z,100505.47
2023-10-25T11:54:57.747Z,100501.44
2023-10-25T11:57:33.164Z,100483.50
2023-10-25T12:00:00.127Z,100481.84
2023-10-25T12:02:28.374Z,100493.53
2023-10-25T12:04:56.231Z,100489.47
2023-10-25T12:07:24.775Z,100486.50
2023-10-25T12:09:53.094Z,100476.19
2023-10-25T12:12:21.026Z,100480.28
2023-10-25T12:14:48.498Z,100482.47
2023-10-25T12:17:15.915Z,100480.53
2023-10-25T12:19:43.395Z,100481.91
2023-10-25T12:22:13.750Z,100487.06
2023-10-25T12:24:43.773Z,100481.63
2023-10-25T12:27:12.708Z,100488.69
2023-10-25T12:29:40.416Z,100498.44
2023-10-25T12:32:07.906Z,100486.25
2023-10-25T12:34:34.852Z,100499.28
2023-10-25T12:37:01.944Z,100491.41
2023-10-25T12:39:28.843Z,100491.13
2023-10-25T12:41:55.819Z,100495.47
2023-10-25T12:44:22.703Z,100495.47
2023-10-25T12:46:49.600Z,100499.28
2023-10-25T12:49:18.376Z,100497.41
2023-10-25T12:51:46.218Z,100496.31
2023-10-25T12:54:13.133Z,100485.44
2023-10-25T12:56:40.000Z,100490.06
2023-10-25T12:59:06.907Z,100484.09
2023-10-25T13:01:33.931Z,100490.34
2023-10-25T13:04:00.925Z,100488.69
2023-10-25T13:06:28.287Z,100491.41
2023-10-25T13:08:56.653Z,100494.41
2023-10-25T13:11:23.643Z,100490.56
2023-10-25T13:13:50.730Z,100477.00
2023-10-25T13:16:17.757Z,100478.88
2023-10-25T13:18:44.605Z,100475.63
2023-10-25T13:21:11.452Z,100478.88
2023-10-25T13:23:38.289Z,100487.84
2023-10-25T13:26:05.179Z,100497.09
2023-10-25T13:28:32.008Z,100496.28
2023-10-25T13:30:58.908Z,100487.34
2023-10-25T13:33:27.561Z,100498.75
2023-10-25T13:35:54.727Z,100492.50
2023-10-25T13:38:21.704Z,100490.88
2023-10-25T13:40:49.668Z,100496.56
2023-10-25T13:43:17.396Z,100496.84
2023-10-25T13:45:46.235Z,100490.88
2023-10-25T13:48:13.805Z,100491.16
2023-10-25T13:50:41.136Z,100494.13
2023-10-25T13:53:08.294Z,100492.78
2023-10-25T13:55:39.305Z,100494.94
2023-10-25T13:58:12.857Z,100491.69
2023-10-25T14:00:42.602Z,100481.91
2023-10-25T14:03:09.770Z,100489.53
2023-10-25T14:05:44.066Z,100501.75
2023-10-25T14:08:11.247Z,100500.09
2023-10-25T14:10:48.759Z,100501.75
2023-10-25T14:13:37.733Z,100501.94
2023-10-25T14:16:11.682Z,100502.97
2023-10-25T14:18:39.048Z,100506.78
2023-10-25T14:21:12.201Z,100513.31
2023-10-25T14:23:41.387Z,100507.31
2023-10-25T14:26:08.545Z,100503.25
2023-10-25T14:28:35.975Z,100509.75
2023-10-25T14:31:03.143Z,100505.16
2023-10-25T14:33:30.450Z,100494.03
2023-10-25T14:35:58.085Z,100493.22
2023-10-25T14:38:25.029Z,100483.69
2023-10-25T14:40:51.924Z,100500.16
2023-10-25T14:43:18.814Z,100492.84
2023-10-25T14:45:47.129Z,100500.44
2023-10-25T14:48:14.688Z,100499.56
2023-10-25T14:50:41.801Z,100497.97
2023-10-25T14:53:08.823Z,100493.09
2023-10-25T14:55:37.349Z,100504.44
2023-10-25T14:58:05.726Z,100503.88
2023-10-25T15:00:33.195Z,100509.84
2023-10-25T15:03:00.360Z,100496.63
2023-10-25T15:05:27.408Z,100498.22
2023-10-25T15:07:56.495Z,100491.75
2023-10-25T15:10:23.556Z,100487.97
2023-10-25T15:12:50.469Z,100486.88
2023-10-25T15:15:17.519Z,100490.16
2023-10-25T15:17:47.201Z,100494.22
2023-10-25T15:20:15.543Z,100503.72
2023-10-25T15:22:42.756Z,100498.56
2023-10-25T15:25:11.206Z,100495.56
2023-10-25T15:27:39.218Z,100477.94
2023-10-25T15:30:06.804Z,100473.34
2023-10-25T15:32:34.006Z,100482.28
2023-10-25T15:35:00.937Z,100474.66
2023-10-25T15:37:29.354Z,100470.91
2023-10-25T15:40:09.462Z,100460.59
2023-10-25T15:42:42.638Z,100460.59
2023-10-25T15:45:14.107Z,100458.97
2023-10-25T15:47:41.450Z,100461.97
2023-10-25T15:50:09.276Z,100469.78
2023-10-25T15:52:37.369Z,100479.03
2023-10-25T15:55:05.768Z,100485.28
2023-10-25T15:57:33.085Z,100479.59
2023-10-25T16:00:00.026Z,100469.00
2023-10-25T16:02:26.908Z,100482.81
2023-10-25T16:04:53.970Z,100480.94
2023-10-25T16:07:20.977Z,100488.19
2023-10-25T16:09:48.539Z,100485.78
2023-10-25T16:12:15.331Z,100491.44
2023-10-25T16:14:42.445Z,100493.59
2023-10-25T16:17:09.802Z,100497.59
2023-10-25T16:19:37.476Z,100500.00
2023-10-25T16:22:05.597Z,100500.53
2023-10-25T16:24:32.564Z,100507.00
2023-10-25T16:27:00.168Z,100510.28
2023-10-25T16:29:30.482Z,100509.44
2023-10-25T16:31:57.323Z,100507.50
2023-10-25T16:34:24.178Z,100503.16
2023-10-25T16:37:03.384Z,100511.78
2023-10-25T16:39:32.448Z,100535.63
2023-10-25T16:42:02.613Z,100524.50
2023-10-25T16:44:29.986Z,100522.84
2023-10-25T16:46:57.077Z,100526.34
2023-10-25T16:49:24.038Z,100531.22
2023-10-25T16:51:50.869Z,100529.53
2023-10-25T16:54:17.979Z,100521.69
2023-10-25T16:56:45.543Z,100519.75
2023-10-25T16:59:14.650Z,100523.00
2023-10-25T17:01:41.617Z,100530.28
2023-10-25T17:04:08.714Z,100533.47
2023-10-25T17:06:35.914Z,100527.94
2023-10-25T17:09:04.410Z,100527.94
2023-10-25T17:11:31.363Z,100531.47
2023-10-25T17:13:58.325Z,100532.25
2023-10-25T17:16:25.302Z,100541.19
2023-10-25T17:18:53.280Z,100539.25
2023-10-25T17:21:20.281Z,100537.66
2023-10-25T17:23:47.513Z,100547.38
2023-10-25T17:26:14.367Z,100547.63
2023-10-25T17:28:41.292Z,100555.44
2023-10-25T17:31:08.230Z,100551.91
2023-10-25T17:33:35.323Z,100569.75
2023-10-25T17:36:02.570Z,100565.72
2023-10-25T17:38:31.931Z,100564.31
2023-10-25T17:41:00.429Z,100559.44
2023-10-25T17:43:27.515Z,100562.88
2023-10-25T17:48:29.041Z,100559.91
2023-10-25T17:50:56.382Z,100560.38
2023-10-25T17:53:24.109Z,100564.19
2023-10-25T17:55:51.214Z,100563.59
2023-10-25T17:58:18.238Z,100561.22
2023-10-25T18:00:48.415Z,100557.94
2023-10-25T18:03:15.555Z,100561.16
2023-10-25T18:05:43.374Z,100552.78
2023-10-25T18:08:12.688Z,100551.13
2023-10-25T18:10:43.801Z,100548.66
2023-10-25T18:13:11.374Z,100550.28
2023-10-25T18:15:38.981Z,100557.56
2023-10-25T18:18:13.066Z,100559.47
2023-10-25T18:20:40.350Z,100559.22
2023-10-25T18:23:07.427Z,100574.63
2023-10-25T18:25:34.273Z,100573.75
2023-10-25T18:28:01.895Z,100570.53
2023-10-25T18:32:02.397Z,100574.63
2023-10-25T18:33:20.423Z,100585.41
2023-10-25T18:35:49.322Z,100585.69
2023-10-25T18:38:16.605Z,100573.81
2023-10-25T18:40:55.386Z,100574.94
2023-10-25T18:43:22.674Z,100569.47
2023-10-25T18:46:02.470Z,100561.66
2023-10-25T18:48:29.776Z,100558.97
2023-10-25T18:51:00.541Z,100570.53
2023-10-25T18:53:30.214Z,100566.47
2023-10-25T18:56:01.269Z,100569.66
2023-10-25T18:58:29.555Z,100570.75
2023-10-25T19:00:57.529Z,100566.94
2023-10-25T19:03:28.390Z,100552.38
2023-10-25T19:06:23.149Z,100558.34
2023-10-25T19:08:43.625Z,100564.00
2023-10-25T19:11:11.034Z,100568.28
2023-10-25T19:13:39.884Z,100579.13
2023-10-25T19:16:12.774Z,100569.38
2023-10-25T19:18:39.677Z,100564.75
2023-10-25T19:21:07.346Z,100565.34
2023-10-25T19:23:34.292Z,100565.81
2023-10-25T19:26:06.220Z,100575.84
2023-10-25T19:28:35.716Z,100584.72
2023-10-25T19:31:02.646Z,100582.81
2023-10-25T19:33:29.663Z,100592.25
2023-10-25T19:35:56.846Z,100583.00
2023-10-25T19:38:23.946Z,100582.72
2023-10-25T19:40:50.792Z,100567.84
2023-10-25T19:43:21.375Z,100568.09
2023-10-25T19:45:48.273Z,100572.44
2023-10-25T19:48:15.124Z,100574.84
2023-10-25T19:50:42.056Z,100573.47
2023-10-25T19:53:10.221Z,100582.63
2023-10-25T19:55:38.031Z,100587.44
2023-10-25T19:58:04.885Z,100588.28
2023-10-25T20:00:31.780Z,100582.03
2023-10-25T20:02:58.743Z,100587.44
2023-10-25T20:05:25.754Z,100586.72
2023-10-25T20:07:52.529Z,100593.34
2023-10-25T20:10:19.413Z,100595.53
2023-10-25T20:12:48.360Z,100585.81
2023-10-25T20:15:15.298Z,100591.47
2023-10-25T20:17:43.477Z,100599.91
2023-10-25T20:20:10.841Z,100597.78
2023-10-25T20:22:38.161Z,100610.22
2023-10-25T20:25:05.761Z,100613.19
2023-10-25T20:27:34.679Z,100610.94
2023-10-25T20:30:01.676Z,100605.47
2023-10-25T20:32:32.276Z,100613.31
2023-10-25T20:35:00.050Z,100621.94
2023-10-25T20:37:26.982Z,100620.56
2023-10-25T20:39:53.883Z,100621.13
2023-10-25T20:42:20.806Z,100618.69
2023-10-25T20:44:48.190Z,100607.88
2023-10-25T20:47:15.175Z,100606.75
2023-10-25T20:49:42.100Z,100596.44
2023-10-25T20:52:08.922Z,100602.91
2023-10-25T20:54:35.765Z,100603.16
2023-10-25T20:57:02.722Z,100596.28
2023-10-25T20:59:29.544Z,100601.34
2023-10-25T21:01:56.392Z,100608.09
2023-10-25T21:04:26.189Z,100599.16
2023-10-25T21:06:53.334Z,100593.13
2023-10-25T21:09:20.430Z,100594.16
2023-10-25T21:11:47.365Z,100589.66
2023-10-25T21:14:14.300Z,100593.38
2023-10-25T21:16:41.109Z,100606.63
2023-10-25T21:19:08.048Z,100611.38
2023-10-25T21:21:34.961Z,100611.63
2023-10-25T21:24:01.896Z,100612.44
2023-10-25T21:26:29.536Z,100603.53
2023-10-25T21:28:58.051Z,100606.22
2023-10-25T21:31:28.259Z,100615.94
2023-10-25T21:33:55.321Z,100620.53
2023-10-25T21:36:24.188Z,100616.78
2023-10-25T21:38:51.282Z,100617.28
2023-10-25T21:41:18.325Z,100608.50
2023-10-25T21:43:45.148Z,100605.00
2023-10-25T21:46:12.516Z,100609.91
2023-10-25T21:48:39.566Z,100598.28
2023-10-25T21:51:07.421Z,100601.75
2023-10-25T21:53:35.037Z,100592.81
2023-10-25T21:56:23.505Z,100598.53
2023-10-25T21:59:48.131Z,100589.69
2023-10-25T22:01:36.877Z,100579.06
2023-10-25T22:04:04.287Z,100576.94
2023-10-25T22:06:32.142Z,100573.16
2023-10-25T22:08:59.177Z,100575.78
2023-10-25T22:11:26.176Z,100574.00
2023-10-25T22:13:52.973Z,100573.66
2023-10-25T22:16:19.902Z,100570.94
2023-10-25T22:18:46.774Z,100572.03
2023-10-25T22:21:13.765Z,100582.25
2023-10-25T22:23:40.695Z,100578.50
2023-10-25T22:26:07.536Z,100567.44
2023-10-25T22:28:34.282Z,100566.56
2023-10-25T22:31:05.566Z,100549.75
2023-10-25T22:33:32.877Z,100548.72
2023-10-25T22:36:02.591Z,100548.38
2023-10-25T22:38:30.896Z,100549.75
2023-10-25T22:40:59.049Z,100540.84
2023-10-25T22:43:28.087Z,100539.81
2023-10-25T22:45:54.962Z,100520.41
2023-10-25T22:48:22.797Z,100502.81
2023-10-25T22:50:56.433Z,100493.31
2023-10-25T22:53:23.608Z,100489.06
2023-10-25T22:55:50.417Z,100487.84
2023-10-25T22:58:17.495Z,100489.97
2023-10-25T23:00:45.694Z,100486.78
2023-10-25T23:03:12.830Z,100487.59
2023-10-25T23:05:48.219Z,100476.56
2023-10-25T23:08:14.970Z,100484.91
2023-10-25T23:10:42.305Z,100485.72
2023-10-25T23:13:09.247Z,100497.81
2023-10-25T23:15:37.070Z,100493.41
2023-10-25T23:18:04.775Z,100484.16
2023-10-25T23:20:32.019Z,100478.75
2023-10-25T23:22:58.820Z,100476.22
2023-10-25T23:25:25.699Z,100477.88
2023-10-25T23:27:52.514Z,100473.84
2023-10-25T23:30:19.268Z,100470.75
2023-10-25T23:32:46.198Z,100476.47
2023-10-25T23:35:14.549Z,100477.28
2023-10-25T23:37:41.448Z,100475.66
2023-10-25T23:40:08.709Z,100469.34
2023-10-25T23:42:35.757Z,100471.50
2023-10-25T23:45:02.724Z,100466.91
2023-10-25T23:47:29.602Z,100472.56
2023-10-25T23:49:56.464Z,100489.00
2023-10-25T23:52:23.270Z,100484.50
2023-10-25T23:54:54.678Z,100475.59
2023-10-25T23:57:22.803Z,100481.22
2023-10-25T23:59:49.917Z,100478.03
